Time;durP1;ratioP1;P1;durP2;ratioP2;P2;SDS_P1;SDS_P2;PMS_P1;PMS_P2;Temp;Humidity;BMP_temperature;BMP_pressure;BME280_temperature;BME280_humidity;BME280_pressure;Samples;Min_cycle;Max_cycle;Signal;HPM_P1;HPM_P2
2021/12/19 00:00:23;;;;;;;1.38;1.13;;;1.30;99.90;;;;;;5093370;28;20028;-53
2021/12/19 00:08:32;;;;;;;0.00;0.00;;;0.90;99.90;;;;;;5093303;28;20119;-51
2021/12/19 00:10:58;;;;;;;1.65;1.55;;;0.80;99.90;;;;;;5093347;28;20107;-48
2021/12/19 00:13:25;;;;;;;0.00;0.00;;;1.10;99.90;;;;;;5097207;28;20111;-52
2021/12/19 00:15:51;;;;;;;0.47;0.47;;;1.00;99.90;;;;;;5096464;28;20444;-52
2021/12/19 00:18:17;;;;;;;1.30;1.10;;;1.10;99.90;;;;;;5095199;28;20024;-48
2021/12/19 00:20:43;;;;;;;0.00;0.00;;;1.10;99.90;;;;;;5095479;28;20024;-53
2021/12/19 00:23:08;;;;;;;2.63;1.65;;;1.10;99.90;;;;;;5095432;28;20020;-54
2021/12/19 00:25:34;;;;;;;0.63;0.63;;;1.20;99.90;;;;;;5082892;28;20394;-51
2021/12/19 00:28:00;;;;;;;0.10;0.10;;;1.30;99.90;;;;;;5076015;28;20109;-51
2021/12/19 00:30:26;;;;;;;1.08;0.98;;;1.30;99.90;;;;;;5087634;28;20048;-51
2021/12/19 00:32:51;;;;;;;0.98;0.98;;;1.10;99.90;;;;;;5093593;28;20071;-52
2021/12/19 00:35:17;;;;;;;0.60;0.60;;;1.10;99.90;;;;;;5087895;28;20013;-49
2021/12/19 00:37:43;;;;;;;0.50;0.50;;;1.30;99.90;;;;;;5087842;28;20073;-53
2021/12/19 00:40:10;;;;;;;0.00;0.00;;;1.20;99.90;;;;;;5086608;28;20458;-50
2021/12/19 00:42:37;;;;;;;0.65;0.65;;;1.30;99.90;;;;;;5096802;28;20066;-54
2021/12/19 00:45:42;;;;;;;0.20;0.20;;;1.30;99.90;;;;;;5094590;28;20027;-51
2021/12/19 00:48:04;;;;;;;0.00;0.00;;;1.30;99.90;;;;;;5088551;28;20036;-50
2021/12/19 00:50:31;;;;;;;0.30;0.30;;;1.50;99.90;;;;;;5089008;28;20028;-48
2021/12/19 00:52:58;;;;;;;1.30;0.60;;;1.40;99.90;;;;;;5086350;28;20016;-49
2021/12/19 00:55:27;;;;;;;3.20;0.70;;;1.30;99.90;;;;;;5088626;28;20056;-50
2021/12/19 00:57:54;;;;;;;0.00;0.00;;;1.40;99.90;;;;;;5088890;28;20071;-52
2021/12/19 01:00:23;;;;;;;3.40;1.95;;;1.30;99.90;;;;;;5093064;28;20076;-49
2021/12/19 01:02:51;;;;;;;10.40;4.75;;;1.00;99.90;;;;;;5092440;28;20379;-51
2021/12/19 01:05:18;;;;;;;7.22;3.42;;;0.50;99.90;;;;;;5071591;28;20075;-50
2021/12/19 01:07:45;;;;;;;5.53;2.90;;;0.30;99.90;;;;;;5074268;28;20036;-50
2021/12/19 01:10:11;;;;;;;8.95;4.00;;;0.10;99.90;;;;;;5070213;28;20039;-50
2021/12/19 01:12:38;;;;;;;2.22;1.50;;;0.10;99.90;;;;;;5074055;28;20499;-49
2021/12/19 01:15:11;;;;;;;0.00;0.00;;;0.10;99.90;;;;;;5072721;28;20040;-48
2021/12/19 01:17:37;;;;;;;0.45;0.45;;;0.40;99.90;;;;;;5074007;28;20464;-49
2021/12/19 01:20:06;;;;;;;0.00;0.00;;;0.40;99.90;;;;;;5067021;28;20024;-51
2021/12/19 01:22:31;;;;;;;4.90;2.25;;;0.60;99.90;;;;;;5068484;28;20471;-48
2021/12/19 01:24:57;;;;;;;0.00;0.00;;;0.80;99.90;;;;;;5074287;28;20048;-51
2021/12/19 01:27:23;;;;;;;0.20;0.20;;;1.00;99.90;;;;;;5068376;28;20021;-48
2021/12/19 01:29:48;;;;;;;0.00;0.00;;;1.10;99.90;;;;;;5070915;28;20031;-47
2021/12/19 01:32:14;;;;;;;0.00;0.00;;;1.30;99.90;;;;;;5073712;28;20074;-50
2021/12/19 01:34:39;;;;;;;0.30;0.30;;;1.40;99.90;;;;;;5073283;28;20016;-50
2021/12/19 01:37:05;;;;;;;0.32;0.32;;;1.50;99.90;;;;;;5073078;28;20430;-49
2021/12/19 01:39:31;;;;;;;0.10;0.10;;;1.50;99.90;;;;;;5073695;28;20528;-50
2021/12/19 01:41:57;;;;;;;7.60;4.10;;;1.30;99.90;;;;;;5073521;28;20025;-50
2021/12/19 01:44:25;;;;;;;1.20;1.08;;;1.30;99.90;;;;;;5072586;28;20429;-49
2021/12/19 01:46:51;;;;;;;0.00;0.00;;;1.20;99.90;;;;;;5047404;28;20033;-49
2021/12/19 01:49:19;;;;;;;0.15;0.15;;;1.20;99.90;;;;;;5052511;28;20025;-51
2021/12/19 01:51:45;;;;;;;2.35;2.17;;;1.30;99.90;;;;;;5069852;28;20047;-52
2021/12/19 01:54:11;;;;;;;1.20;0.52;;;1.30;99.90;;;;;;5072685;28;20028;-50
2021/12/19 01:56:38;;;;;;;0.00;0.00;;;1.20;99.90;;;;;;5064438;28;20021;-54
2021/12/19 01:59:06;;;;;;;2.20;1.45;;;1.30;99.90;;;;;;5061444;28;20107;-51
2021/12/19 02:01:40;;;;;;;1.55;0.57;;;1.20;99.90;;;;;;5068534;28;20100;-48
2021/12/19 02:04:06;;;;;;;5.63;2.80;;;1.10;99.90;;;;;;5071799;28;20055;-50
2021/12/19 02:06:32;;;;;;;1.17;0.95;;;0.70;99.90;;;;;;5093104;28;20016;-50
2021/12/19 02:09:04;;;;;;;1.70;1.60;;;0.70;99.90;;;;;;5093204;28;20035;-48
2021/12/19 02:11:36;;;;;;;0.10;0.10;;;0.70;99.90;;;;;;5093247;28;20016;-50
2021/12/19 02:14:03;;;;;;;0.00;0.00;;;0.80;99.90;;;;;;5049124;28;20178;-49
2021/12/19 02:16:30;;;;;;;0.15;0.15;;;0.90;99.90;;;;;;5068146;28;20048;-49
2021/12/19 02:18:56;;;;;;;0.10;0.10;;;0.80;99.90;;;;;;5073379;28;20021;-49
2021/12/19 02:21:22;;;;;;;0.00;0.00;;;0.80;99.90;;;;;;5072467;28;20025;-50
2021/12/19 02:23:48;;;;;;;7.88;2.70;;;0.90;99.90;;;;;;5072921;28;20023;-48
2021/12/19 02:26:15;;;;;;;5.15;1.27;;;1.10;99.90;;;;;;5072895;28;20386;-48
2021/12/19 02:28:41;;;;;;;0.80;0.43;;;0.80;99.90;;;;;;5068915;28;20082;-48
2021/12/19 02:31:06;;;;;;;0.10;0.10;;;0.70;99.90;;;;;;5072585;28;20379;-52
2021/12/19 02:33:38;;;;;;;6.93;3.00;;;0.70;99.90;;;;;;5067892;28;20031;-50
2021/12/19 02:36:20;;;;;;;2.40;2.20;;;0.60;99.90;;;;;;5077070;28;20044;-48
2021/12/19 02:49:40;;;;;;;0.22;0.22;;;0.30;99.90;;;;;;5076165;28;20122;-51
2021/12/19 02:52:14;;;;;;;6.82;2.72;;;0.20;99.90;;;;;;5072172;28;20027;-49
2021/12/19 02:54:41;;;;;;;1.48;1.33;;;0.40;99.90;;;;;;5072304;28;20026;-49
2021/12/19 02:57:07;;;;;;;8.30;3.13;;;0.40;99.90;;;;;;5065693;28;20123;-50
2021/12/19 02:59:33;;;;;;;18.00;5.30;;;0.30;99.90;;;;;;5072255;28;20463;-48
2021/12/19 03:01:59;;;;;;;1.17;0.28;;;0.50;99.90;;;;;;5070396;28;20136;-50
2021/12/19 03:04:25;;;;;;;6.30;3.13;;;0.30;99.90;;;;;;5092060;28;20123;-48
2021/12/19 03:06:51;;;;;;;25.13;3.60;;;0.30;99.90;;;;;;5091741;28;20055;-49
2021/12/19 03:09:35;;;;;;;5.00;3.28;;;0.20;99.90;;;;;;5091728;28;20467;-48
2021/12/19 03:12:10;;;;;;;5.80;2.53;;;0.00;99.90;;;;;;5073838;28;20032;-53
2021/12/19 03:20:08;;;;;;;7.20;4.20;;;0.20;99.90;;;;;;5091674;28;20050;-47
2021/12/19 03:22:34;;;;;;;7.22;1.63;;;0.30;99.90;;;;;;5091880;28;20024;-50
2021/12/19 03:24:59;;;;;;;13.05;6.90;;;0.30;99.90;;;;;;5068416;28;20031;-49
2021/12/19 03:27:25;;;;;;;0.40;0.40;;;0.10;99.90;;;;;;5072233;28;20367;-52
2021/12/19 03:29:51;;;;;;;0.10;0.10;;;0.20;99.90;;;;;;5072377;28;20032;-50
2021/12/19 03:32:16;;;;;;;2.10;0.25;;;0.20;99.90;;;;;;5072006;28;20047;-47
2021/12/19 03:34:42;;;;;;;2.53;2.28;;;0.50;99.90;;;;;;5071662;28;20024;-46
2021/12/19 03:37:08;;;;;;;1.02;1.02;;;0.50;99.90;;;;;;5047231;28;20036;-49
2021/12/19 03:39:44;;;;;;;0.40;0.22;;;0.60;99.90;;;;;;5063627;28;20044;-49
2021/12/19 03:42:10;;;;;;;0.22;0.22;;;0.80;99.90;;;;;;5079250;28;20024;-50
2021/12/19 03:44:37;;;;;;;1.17;0.40;;;0.90;99.90;;;;;;5071839;28;20379;-50
2021/12/19 03:47:03;;;;;;;0.32;0.32;;;0.90;99.90;;;;;;5070718;28;20122;-50
2021/12/19 03:49:28;;;;;;;0.00;0.00;;;0.80;99.90;;;;;;5065486;28;20043;-50
2021/12/19 03:51:54;;;;;;;18.38;1.90;;;0.80;99.90;;;;;;5071952;28;20399;-46
2021/12/19 03:54:20;;;;;;;1.33;1.23;;;0.90;99.90;;;;;;5093171;28;20115;-48
2021/12/19 03:56:46;;;;;;;0.00;0.00;;;0.90;99.90;;;;;;5091880;28;20127;-47
2021/12/19 03:59:11;;;;;;;0.20;0.20;;;0.90;99.90;;;;;;5093070;28;20027;-49
2021/12/19 04:01:37;;;;;;;2.72;0.43;;;0.80;99.90;;;;;;5093138;28;20414;-50
2021/12/19 04:04:03;;;;;;;3.47;2.63;;;0.60;99.90;;;;;;5093549;28;20051;-53
2021/12/19 04:06:29;;;;;;;23.05;2.92;;;0.80;99.90;;;;;;5093054;28;20110;-47
2021/12/19 04:08:56;;;;;;;1.65;1.55;;;0.90;99.90;;;;;;5093046;28;20182;-49
2021/12/19 04:11:24;;;;;;;0.00;0.00;;;0.90;99.90;;;;;;5093372;28;20382;-47
2021/12/19 04:13:50;;;;;;;0.80;0.73;;;0.70;99.90;;;;;;5093333;28;20476;-51
2021/12/19 04:16:15;;;;;;;4.75;2.70;;;0.60;99.90;;;;;;5093018;28;20066;-50
2021/12/19 04:18:41;;;;;;;3.28;2.97;;;0.50;99.90;;;;;;5075231;28;20063;-52
2021/12/19 04:21:07;;;;;;;9.55;3.78;;;0.50;99.90;;;;;;5092838;28;20111;-52
2021/12/19 04:23:33;;;;;;;7.43;1.33;;;0.30;99.90;;;;;;5093197;28;20024;-49
2021/12/19 04:25:58;;;;;;;2.40;1.95;;;0.10;99.90;;;;;;5093086;28;20497;-51
2021/12/19 04:28:24;;;;;;;14.23;3.60;;;0.00;99.90;;;;;;5093076;28;20509;-49
2021/12/19 04:30:50;;;;;;;0.13;0.13;;;0.00;99.90;;;;;;5093180;28;20032;-48
2021/12/19 04:33:16;;;;;;;0.00;0.00;;;0.00;99.90;;;;;;5092887;28;20336;-50
2021/12/19 04:35:44;;;;;;;2.83;1.30;;;0.20;99.90;;;;;;5092978;28;20055;-47
2021/12/19 04:59:25;;;;;;;3.03;1.80;;;0.30;99.90;;;;;;5096364;28;20043;-51
2021/12/19 05:15:13;;;;;;;1.25;0.98;;;0.40;99.90;;;;;;5096051;28;20069;-50
2021/12/19 05:17:39;;;;;;;0.10;0.10;;;0.50;99.90;;;;;;5095891;28;20482;-48
2021/12/19 05:20:16;;;;;;;1.98;1.63;;;0.60;99.90;;;;;;5095884;28;20028;-49
2021/12/19 05:22:51;;;;;;;0.47;0.47;;;0.50;99.90;;;;;;5095894;28;20024;-52
2021/12/19 05:25:18;;;;;;;0.00;0.00;;;0.70;99.90;;;;;;5095786;28;20443;-49
2021/12/19 05:27:55;;;;;;;4.30;2.28;;;0.80;99.90;;;;;;5095871;28;20031;-47
2021/12/19 05:30:22;;;;;;;0.00;0.00;;;0.80;99.90;;;;;;5095917;28;20463;-47
2021/12/19 05:32:50;;;;;;;9.50;3.20;;;1.00;99.90;;;;;;5095722;28;20016;-50
2021/12/19 05:35:23;;;;;;;2.50;2.17;;;0.90;99.90;;;;;;5095526;28;20383;-51
2021/12/19 05:46:01;;;;;;;5.93;1.05;;;0.20;99.90;;;;;;5095522;28;20051;-51
2021/12/19 05:48:27;;;;;;;1.67;1.27;;;0.00;99.90;;;;;;5077408;28;20028;-51
2021/12/19 05:50:52;;;;;;;0.22;0.22;;;0.10;99.90;;;;;;5095128;28;20504;-52
2021/12/19 05:53:18;;;;;;;0.30;0.30;;;0.30;99.90;;;;;;5077314;28;20055;-49
2021/12/19 05:55:44;;;;;;;9.68;3.10;;;0.40;99.90;;;;;;5095162;28;20473;-48
2021/12/19 05:58:09;;;;;;;0.70;0.70;;;0.40;99.90;;;;;;5095384;28;20028;-49
2021/12/19 06:00:36;;;;;;;0.13;0.13;;;0.50;99.90;;;;;;5095328;28;20021;-51
2021/12/19 06:03:03;;;;;;;3.92;0.80;;;0.50;99.90;;;;;;5095186;28;20031;-51
2021/12/19 06:05:29;;;;;;;0.00;0.00;;;0.60;99.90;;;;;;5094732;28;20052;-48
2021/12/19 06:07:55;;;;;;;0.90;0.90;;;0.60;99.90;;;;;;5094829;28;20039;-47
2021/12/19 06:10:22;;;;;;;0.10;0.10;;;0.70;99.90;;;;;;5093910;28;20024;-48
2021/12/19 06:12:49;;;;;;;0.00;0.00;;;0.60;99.90;;;;;;5095070;28;20024;-49
2021/12/19 06:15:14;;;;;;;0.30;0.30;;;0.60;99.90;;;;;;5094901;28;20024;-48
2021/12/19 06:17:42;;;;;;;0.57;0.43;;;0.70;99.90;;;;;;5094798;28;20116;-48
2021/12/19 06:20:09;;;;;;;0.05;0.05;;;0.70;99.90;;;;;;5094687;28;20050;-50
2021/12/19 06:22:35;;;;;;;0.10;0.10;;;0.60;99.90;;;;;;5095143;28;20035;-54
2021/12/19 06:25:02;;;;;;;0.85;0.85;;;0.60;99.90;;;;;;5094573;28;20028;-47
2021/12/19 06:27:28;;;;;;;0.00;0.00;;;0.70;99.90;;;;;;5094368;28;20020;-47
2021/12/19 06:29:54;;;;;;;0.00;0.00;;;0.70;99.90;;;;;;5094671;28;20069;-53
2021/12/19 06:32:19;;;;;;;1.85;1.20;;;0.70;99.90;;;;;;5094662;28;20043;-49
2021/12/19 06:34:45;;;;;;;3.72;3.47;;;0.60;99.90;;;;;;5094877;28;20106;-47
2021/12/19 06:37:11;;;;;;;2.55;2.35;;;0.70;99.90;;;;;;5094344;28;20119;-53
2021/12/19 06:39:38;;;;;;;0.30;0.30;;;0.60;99.90;;;;;;5094642;28;20051;-50
2021/12/19 06:42:06;;;;;;;1.20;1.10;;;0.50;99.90;;;;;;5094096;28;20459;-49
2021/12/19 06:44:33;;;;;;;0.00;0.00;;;0.40;99.90;;;;;;5094495;28;20024;-48
2021/12/19 06:47:00;;;;;;;0.00;0.00;;;0.40;99.90;;;;;;5094327;28;20043;-49
2021/12/19 06:49:26;;;;;;;0.08;0.08;;;0.60;99.90;;;;;;5094353;28;20085;-49
2021/12/19 06:51:52;;;;;;;0.00;0.00;;;0.60;99.90;;;;;;5094075;28;20020;-49
2021/12/19 06:54:17;;;;;;;2.78;2.13;;;0.60;99.90;;;;;;5093847;28;20028;-49
2021/12/19 06:56:43;;;;;;;0.15;0.15;;;0.60;99.90;;;;;;5094194;28;20032;-50
2021/12/19 06:59:08;;;;;;;0.57;0.47;;;0.60;99.90;;;;;;5093937;28;20024;-50
2021/12/19 07:01:36;;;;;;;0.35;0.35;;;0.80;99.90;;;;;;5094011;28;20459;-47
2021/12/19 07:04:03;;;;;;;2.85;0.40;;;0.80;99.90;;;;;;5077076;28;20048;-50
2021/12/19 07:06:28;;;;;;;0.28;0.28;;;0.80;99.90;;;;;;5093702;28;20035;-50
2021/12/19 07:08:54;;;;;;;5.47;1.75;;;0.80;99.90;;;;;;5093641;28;20031;-48
2021/12/19 07:11:21;;;;;;;0.32;0.32;;;0.50;99.90;;;;;;5086019;28;20052;-47
2021/12/19 07:13:47;;;;;;;0.65;0.65;;;0.40;99.90;;;;;;5093843;28;20028;-51
2021/12/19 07:16:13;;;;;;;1.55;1.45;;;0.30;99.90;;;;;;5093510;28;20024;-51
2021/12/19 07:18:38;;;;;;;0.00;0.00;;;0.40;99.90;;;;;;5094111;28;20028;-48
2021/12/19 07:21:07;;;;;;;0.25;0.25;;;0.40;99.90;;;;;;5093648;28;20027;-49
2021/12/19 07:23:34;;;;;;;0.00;0.00;;;0.50;99.90;;;;;;5087469;28;20135;-50
2021/12/19 07:26:00;;;;;;;0.28;0.17;;;0.50;99.90;;;;;;5093522;28;20040;-50
2021/12/19 07:28:26;;;;;;;2.40;1.35;;;0.70;99.90;;;;;;5093688;28;20027;-52
2021/12/19 07:30:53;;;;;;;4.10;1.63;;;0.70;99.90;;;;;;5093376;28;20465;-50
2021/12/19 07:33:19;;;;;;;2.47;2.08;;;0.80;99.90;;;;;;5093487;28;20053;-47
2021/12/19 07:35:47;;;;;;;1.17;1.08;;;0.60;99.90;;;;;;5093383;28;20028;-48
2021/12/19 07:38:32;;;;;;;0.00;0.00;;;0.60;99.90;;;;;;5093527;28;20024;-47
2021/12/19 07:40:59;;;;;;;1.25;1.13;;;0.60;99.90;;;;;;5093238;28;20029;-49
2021/12/19 07:43:25;;;;;;;0.00;0.00;;;0.40;99.90;;;;;;5093519;28;20370;-48
2021/12/19 07:45:51;;;;;;;2.38;2.20;;;0.50;99.90;;;;;;5093029;28;20034;-48
2021/12/19 07:48:17;;;;;;;2.28;1.00;;;0.60;99.90;;;;;;5093299;28;20030;-50
2021/12/19 07:50:43;;;;;;;1.33;1.15;;;0.60;99.90;;;;;;5092972;28;20107;-47
2021/12/19 07:53:09;;;;;;;0.00;0.00;;;0.70;99.90;;;;;;5093390;28;20124;-50
2021/12/19 07:55:35;;;;;;;1.65;1.58;;;0.60;99.90;;;;;;5092803;28;20097;-50
2021/12/19 07:58:01;;;;;;;0.75;0.75;;;0.60;99.90;;;;;;5093396;28;20064;-49
2021/12/19 08:00:26;;;;;;;2.30;2.05;;;0.50;99.90;;;;;;5093321;28;20028;-50
2021/12/19 08:02:52;;;;;;;16.92;2.13;;;0.60;99.90;;;;;;5093083;28;20039;-51
2021/12/19 08:05:21;;;;;;;0.75;0.75;;;0.50;99.90;;;;;;5056386;28;20055;-49
2021/12/19 08:07:48;;;;;;;0.20;0.20;;;0.50;99.90;;;;;;5069485;28;20040;-50
2021/12/19 08:13:06;;;;;;;0.22;0.22;;;1.00;99.90;;;;;;5031579;28;20049;-52
2021/12/19 08:15:33;;;;;;;9.50;2.70;;;1.10;99.90;;;;;;5053278;28;20029;-51
2021/12/19 08:17:58;;;;;;;0.00;0.00;;;1.20;99.90;;;;;;5073288;28;20024;-50
2021/12/19 08:20:26;;;;;;;2.08;1.88;;;1.30;99.90;;;;;;5072761;28;20107;-48
2021/12/19 08:22:53;;;;;;;1.75;0.45;;;1.20;99.90;;;;;;5072540;28;20463;-50
2021/12/19 08:25:19;;;;;;;0.45;0.45;;;1.30;99.90;;;;;;5064508;28;20021;-50
2021/12/19 08:27:45;;;;;;;3.60;2.00;;;1.40;99.90;;;;;;5056975;28;20029;-52
2021/12/19 08:30:12;;;;;;;0.50;0.50;;;1.20;99.90;;;;;;5072849;28;20090;-48
2021/12/19 08:32:39;;;;;;;0.40;0.40;;;1.10;99.90;;;;;;5081636;28;20027;-48
2021/12/19 08:35:07;;;;;;;1.05;1.05;;;1.20;99.90;;;;;;5096717;28;20032;-47
2021/12/19 08:37:33;;;;;;;0.38;0.38;;;1.10;99.90;;;;;;5096868;28;20031;-50
2021/12/19 08:39:59;;;;;;;0.47;0.25;;;1.20;99.90;;;;;;5096943;28;20032;-50
2021/12/19 08:42:24;;;;;;;0.95;0.43;;;1.30;99.90;;;;;;5050865;28;20029;-48
2021/12/19 08:44:50;;;;;;;0.25;0.25;;;1.30;99.90;;;;;;5067366;28;20048;-52
2021/12/19 08:47:16;;;;;;;4.57;1.75;;;1.40;99.90;;;;;;5074163;28;20063;-51
2021/12/19 08:49:43;;;;;;;4.65;2.28;;;1.50;99.90;;;;;;5060664;28;20024;-46
2021/12/19 08:52:10;;;;;;;6.38;1.63;;;1.30;99.90;;;;;;5055786;28;20029;-44
2021/12/19 08:54:36;;;;;;;0.80;0.63;;;1.10;99.90;;;;;;5059264;28;20051;-54
2021/12/19 08:57:02;;;;;;;0.85;0.68;;;1.10;99.90;;;;;;5077969;28;20078;-50
2021/12/19 08:59:29;;;;;;;2.15;1.73;;;1.10;99.90;;;;;;5057142;28;20040;-47
2021/12/19 09:02:00;;;;;;;1.52;0.52;;;1.20;99.90;;;;;;5061336;28;20025;-46
2021/12/19 09:04:26;;;;;;;;;;;1.60;99.90;;;;;;5075035;28;20036;-47
2021/12/19 09:06:52;;;;;;;1.27;0.63;;;1.70;99.90;;;;;;5093487;28;20594;-46
2021/12/19 09:09:18;;;;;;;0.00;0.00;;;1.90;99.90;;;;;;5088559;28;20107;-50
2021/12/19 09:11:44;;;;;;;0.00;0.00;;;1.90;99.90;;;;;;5087237;28;20055;-48
2021/12/19 09:14:09;;;;;;;7.60;1.80;;;2.10;99.90;;;;;;5089503;28;20024;-45
2021/12/19 09:16:35;;;;;;;0.65;0.65;;;2.20;99.90;;;;;;5098413;28;20143;-50
2021/12/19 09:19:01;;;;;;;0.57;0.57;;;2.00;99.90;;;;;;5076317;28;20044;-47
2021/12/19 09:21:26;;;;;;;2.30;2.10;;;1.80;99.90;;;;;;5075603;28;20446;-49
2021/12/19 09:23:52;;;;;;;0.15;0.15;;;1.90;99.90;;;;;;5075218;28;20024;-48
2021/12/19 09:26:18;;;;;;;0.00;0.00;;;2.00;99.90;;;;;;5075244;28;20454;-48
2021/12/19 09:28:43;;;;;;;6.47;2.83;;;2.10;99.90;;;;;;5075195;28;20383;-50
2021/12/19 09:31:09;;;;;;;2.40;1.35;;;2.00;99.90;;;;;;5057477;28;20036;-50
2021/12/19 09:33:35;;;;;;;1.90;0.98;;;2.10;99.90;;;;;;5075316;28;20073;-49
2021/12/19 09:36:00;;;;;;;1.73;1.63;;;2.10;99.90;;;;;;5074741;28;20463;-46
2021/12/19 09:38:27;;;;;;;3.45;1.80;;;2.20;99.90;;;;;;5074728;28;20532;-52
2021/12/19 09:41:00;;;;;;;4.78;1.00;;;2.30;99.90;;;;;;5074616;28;20021;-51
2021/12/19 09:43:42;;;;;;;2.97;2.78;;;2.30;99.90;;;;;;5074161;28;20375;-51
2021/12/19 09:46:19;;;;;;;0.80;0.80;;;2.50;99.90;;;;;;5074842;28;20036;-51
2021/12/19 09:48:47;;;;;;;6.47;2.38;;;2.60;99.90;;;;;;5075055;28;20467;-49
2021/12/19 09:51:14;;;;;;;0.43;0.30;;;2.30;99.90;;;;;;5074763;28;20028;-48
2021/12/19 09:53:41;;;;;;;2.75;1.63;;;2.40;99.90;;;;;;5074720;28;20025;-50
2021/12/19 09:56:07;;;;;;;3.85;3.13;;;2.70;99.90;;;;;;5074689;28;20024;-51
2021/12/19 09:58:34;;;;;;;0.32;0.20;;;2.60;99.90;;;;;;5074899;28;20028;-51
2021/12/19 10:01:01;;;;;;;7.53;3.50;;;2.40;99.90;;;;;;5075049;28;20470;-50
2021/12/19 10:03:27;;;;;;;3.00;2.35;;;2.30;99.90;;;;;;5074948;28;20078;-49
2021/12/19 10:06:14;;;;;;;6.10;3.75;;;2.30;99.90;;;;;;5075140;28;20426;-50
2021/12/19 10:08:40;;;;;;;10.15;4.53;;;2.40;99.90;;;;;;5075126;28;20097;-47
2021/12/19 10:11:28;;;;;;;27.52;7.10;;;2.10;99.90;;;;;;5056962;28;20037;-48
2021/12/19 10:13:54;;;;;;;6.30;3.13;;;1.90;99.90;;;;;;5073549;28;20099;-47
2021/12/19 10:16:29;;;;;;;0.28;0.28;;;1.90;99.90;;;;;;5074686;28;20058;-48
2021/12/19 10:18:58;;;;;;;4.70;2.67;;;2.00;99.90;;;;;;5074218;28;20029;-49
2021/12/19 10:21:25;;;;;;;0.90;0.70;;;2.20;99.90;;;;;;5074675;28;20024;-51
2021/12/19 10:23:51;;;;;;;0.68;0.68;;;2.50;99.90;;;;;;5073939;28;20025;-51
2021/12/19 10:26:17;;;;;;;0.60;0.60;;;2.80;99.90;;;;;;5074118;28;20024;-50
2021/12/19 10:28:50;;;;;;;5.90;2.30;;;3.00;99.90;;;;;;5074146;28;20025;-50
2021/12/19 10:31:16;;;;;;;2.40;1.10;;;3.10;99.90;;;;;;5074294;28;20036;-50
2021/12/19 10:33:41;;;;;;;1.10;1.10;;;2.90;99.90;;;;;;5074191;28;20024;-51
2021/12/19 10:36:09;;;;;;;7.22;1.90;;;2.90;99.90;;;;;;5074268;28;20032;-50
2021/12/19 10:38:42;;;;;;;1.65;1.55;;;3.10;99.90;;;;;;5074340;28;20077;-48
2021/12/19 10:41:21;;;;;;;0.17;0.17;;;3.20;99.90;;;;;;5073927;28;20027;-49
2021/12/19 10:44:05;;;;;;;1.40;1.30;;;3.40;99.90;;;;;;5074002;28;20074;-49
2021/12/19 10:46:33;;;;;;;0.35;0.35;;;3.50;99.90;;;;;;5074220;28;20040;-48
2021/12/19 10:49:01;;;;;;;3.17;0.68;;;3.50;99.90;;;;;;5089575;28;20459;-51
2021/12/19 10:51:29;;;;;;;1.63;1.23;;;3.40;99.90;;;;;;5089772;28;20419;-49
2021/12/19 10:54:00;;;;;;;0.93;0.90;;;3.20;99.90;;;;;;5073837;28;20107;-49
2021/12/19 10:56:34;;;;;;;0.00;0.00;;;3.30;99.90;;;;;;5055359;28;20033;-47
2021/12/19 10:59:21;;;;;;;6.00;3.45;;;3.60;99.90;;;;;;5074244;28;20017;-49
2021/12/19 11:01:51;;;;;;;1.00;0.75;;;3.60;99.90;;;;;;5073693;28;20099;-49
2021/12/19 11:04:19;;;;;;;1.65;1.55;;;3.70;99.90;;;;;;5073316;28;20501;-47
2021/12/19 11:06:50;;;;;;;0.15;0.15;;;3.80;99.90;;;;;;5073388;28;20070;-49
2021/12/19 11:09:16;;;;;;;3.17;2.03;;;3.90;99.90;;;;;;5073447;28;20025;-46
2021/12/19 11:11:46;;;;;;;1.65;0.28;;;4.10;99.90;;;;;;5073542;28;20372;-51
2021/12/19 11:14:33;;;;;;;0.00;0.00;;;4.10;99.90;;;;;;5073142;28;20107;-49
2021/12/19 11:17:00;;;;;;;0.75;0.52;;;4.50;99.90;;;;;;5072832;28;20062;-48
2021/12/19 11:19:27;;;;;;;0.00;0.00;;;4.40;99.90;;;;;;5073498;28;20025;-51
2021/12/19 11:21:52;;;;;;;0.32;0.32;;;4.50;99.90;;;;;;5073579;28;20024;-50
2021/12/19 11:24:20;;;;;;;4.25;3.47;;;4.50;99.90;;;;;;5073649;28;20050;-50
2021/12/19 11:26:49;;;;;;;1.35;0.90;;;4.70;99.90;;;;;;5088664;28;20036;-51
2021/12/19 11:29:15;;;;;;;0.50;0.50;;;4.90;99.90;;;;;;5073328;28;20036;-47
2021/12/19 11:31:46;;;;;;;0.10;0.10;;;4.80;99.90;;;;;;5072820;28;20432;-48
2021/12/19 11:34:24;;;;;;;2.53;1.40;;;4.90;99.90;;;;;;5055013;28;20077;-50
2021/12/19 11:37:12;;;;;;;0.10;0.10;;;4.80;99.90;;;;;;5073178;28;20286;-53
2021/12/19 11:39:48;;;;;;;0.35;0.35;;;4.80;99.90;;;;;;5073110;28;20060;-50
2021/12/19 11:42:18;;;;;;;0.00;0.00;;;4.90;99.90;;;;;;5073169;28;20021;-49
2021/12/19 11:47:42;;;;;;;3.75;3.42;;;5.20;99.90;;;;;;5080394;28;20032;-53
2021/12/19 11:50:18;;;;;;;0.10;0.10;;;5.30;99.90;;;;;;5086107;28;20093;-49
2021/12/19 11:52:43;;;;;;;0.00;0.00;;;5.30;99.90;;;;;;5083342;28;20036;-47
2021/12/19 11:55:38;;;;;;;0.88;0.88;;;5.50;99.90;;;;;;5084288;28;20028;-57
2021/12/19 11:58:11;;;;;;;0.40;0.40;;;5.40;99.90;;;;;;5082274;28;20044;-46
2021/12/19 12:00:52;;;;;;;3.13;2.88;;;5.60;99.90;;;;;;5081443;28;20035;-48
2021/12/19 12:03:18;;;;;;;12.35;3.70;;;5.60;99.90;;;;;;5092789;28;20028;-53
2021/12/19 12:05:48;;;;;;;13.30;2.35;;;5.40;99.90;;;;;;5093669;28;20044;-45
2021/12/19 12:08:16;;;;;;;2.50;1.42;;;5.50;99.90;;;;;;5104658;28;20078;-46
2021/12/19 12:10:51;;;;;;;0.15;0.15;;;5.50;99.90;;;;;;5077723;28;20021;-47
2021/12/19 12:13:37;;;;;;;1.23;0.63;;;5.40;99.90;;;;;;5096534;28;20103;-48
2021/12/19 12:18:43;;;;;;;0.22;0.08;;;5.40;99.90;;;;;;5096942;28;20035;-51
2021/12/19 12:21:18;;;;;;;0.80;0.55;;;5.40;99.90;;;;;;5088905;28;20020;-50
2021/12/19 12:24:02;;;;;;;0.20;0.20;;;5.40;99.90;;;;;;5092716;28;20503;-51
2021/12/19 12:26:42;;;;;;;1.65;1.35;;;5.60;99.90;;;;;;5081608;28;20073;-49
2021/12/19 12:29:08;;;;;;;2.05;0.73;;;5.60;99.90;;;;;;5088597;28;20112;-50
2021/12/19 12:31:35;;;;;;;0.45;0.30;;;5.60;99.90;;;;;;5085422;28;20078;-48
2021/12/19 12:34:01;;;;;;;0.00;0.00;;;5.50;99.90;;;;;;5099041;28;20040;-51
2021/12/19 12:36:27;;;;;;;1.30;1.20;;;5.50;99.90;;;;;;5096479;28;20066;-46
2021/12/19 12:38:54;;;;;;;0.00;0.00;;;5.60;99.90;;;;;;5115688;28;20439;-48
2021/12/19 12:41:29;;;;;;;0.22;0.22;;;5.60;99.90;;;;;;5096010;28;20182;-48
2021/12/19 12:44:02;;;;;;;0.40;0.40;;;5.80;99.90;;;;;;5071371;28;20029;-51
2021/12/19 12:46:28;;;;;;;1.10;1.00;;;5.90;99.90;;;;;;5076972;28;20364;-48
2021/12/19 12:49:19;;;;;;;2.05;1.30;;;5.80;99.90;;;;;;5080094;28;20020;-48
2021/12/19 12:52:04;;;;;;;0.20;0.20;;;5.80;99.90;;;;;;5084404;28;20141;-50
2021/12/19 12:54:35;;;;;;;0.00;0.00;;;5.90;99.90;;;;;;5082200;28;20020;-50
2021/12/19 12:57:04;;;;;;;0.25;0.25;;;6.00;99.90;;;;;;5081596;28;20024;-51
2021/12/19 12:59:34;;;;;;;3.30;1.73;;;6.00;99.90;;;;;;5084178;28;20081;-48
2021/12/19 13:04:39;;;;;;;0.52;0.52;;;5.80;99.90;;;;;;5095553;28;20119;-51
2021/12/19 13:07:10;;;;;;;0.65;0.65;;;5.80;99.90;;;;;;5077079;28;20157;-51
2021/12/19 13:09:51;;;;;;;2.72;1.45;;;5.90;99.90;;;;;;5090461;28;20024;-49
2021/12/19 13:12:20;;;;;;;0.70;0.55;;;5.80;99.90;;;;;;5077499;28;20375;-50
2021/12/19 13:14:56;;;;;;;2.60;0.75;;;5.90;99.90;;;;;;5104084;28;20460;-46
2021/12/19 13:17:48;;;;;;;5.85;2.60;;;6.00;99.90;;;;;;5102279;28;20024;-49
2021/12/19 13:20:20;;;;;;;4.82;2.72;;;5.90;99.90;;;;;;5086589;28;20089;-50
2021/12/19 13:22:53;;;;;;;0.43;0.20;;;5.80;99.90;;;;;;5095865;28;20476;-47
2021/12/19 13:25:21;;;;;;;14.05;1.88;;;5.80;99.90;;;;;;5095528;28;20012;-51
2021/12/19 13:27:55;;;;;;;3.42;1.75;;;5.50;99.90;;;;;;5094801;28;20061;-49
2021/12/19 13:30:24;;;;;;;7.35;3.47;;;5.40;99.90;;;;;;5080608;28;20455;-50
2021/12/19 13:33:04;;;;;;;4.03;2.05;;;5.30;99.90;;;;;;5114089;28;20034;-50
2021/12/19 13:35:35;;;;;;;8.88;3.15;;;5.30;99.90;;;;;;5108425;28;20048;-50
2021/12/19 13:38:10;;;;;;;3.85;3.17;;;5.20;99.90;;;;;;5090095;28;20099;-51
2021/12/19 13:40:43;;;;;;;9.80;3.35;;;5.10;99.90;;;;;;5082350;28;20061;-51
2021/12/19 13:43:14;;;;;;;0.10;0.10;;;5.40;99.90;;;;;;5075121;28;20078;-48
2021/12/19 13:45:56;;;;;;;6.18;2.30;;;5.40;99.90;;;;;;5075033;28;20027;-48
2021/12/19 13:48:32;;;;;;;3.22;2.60;;;5.40;99.90;;;;;;5092090;28;20123;-48
2021/12/19 13:51:04;;;;;;;14.00;2.28;;;5.10;99.90;;;;;;5089920;28;20038;-47
2021/12/19 13:53:32;;;;;;;3.13;1.85;;;4.90;99.90;;;;;;5088080;28;20029;-48
2021/12/19 13:56:02;;;;;;;0.30;0.15;;;4.90;99.90;;;;;;5078579;28;20036;-47
2021/12/19 13:58:32;;;;;;;8.55;3.17;;;4.90;99.90;;;;;;5092417;28;20107;-48
2021/12/19 14:00:58;;;;;;;2.10;0.90;;;4.90;99.90;;;;;;5085927;28;20486;-58
2021/12/19 14:03:43;;;;;;;10.30;2.13;;;4.80;99.90;;;;;;5086224;28;20028;-50
2021/12/19 14:06:10;;;;;;;2.42;2.22;;;4.70;99.90;;;;;;5074228;28;20391;-47
2021/12/19 14:08:36;;;;;;;15.43;4.60;;;4.60;99.90;;;;;;5074208;28;20375;-50
2021/12/19 14:11:18;;;;;;;2.95;2.20;;;4.50;99.90;;;;;;5060907;28;20021;-48
2021/12/19 14:14:27;;;;;;;1.05;0.75;;;4.40;99.90;;;;;;5054671;28;20045;-49
2021/12/19 14:17:28;;;;;;;9.95;3.65;;;4.30;99.90;;;;;;5036700;28;20033;-47
2021/12/19 14:19:57;;;;;;;3.40;1.80;;;4.50;99.90;;;;;;5054718;28;20028;-49
2021/12/19 14:22:25;;;;;;;4.57;2.53;;;4.50;99.90;;;;;;5042610;28;20036;-51